Time;durP1;ratioP1;P1;durP2;ratioP2;P2;SDS_P1;SDS_P2;PMS_P1;PMS_P2;Temp;Humidity;BMP_temperature;BMP_pressure;BME280_temperature;BME280_humidity;BME280_pressure;Samples;Min_cycle;Max_cycle;Signal;HPM_P1;HPM_P2
2022/12/19 00:01:15;;;;;;;;;;;;;;;-0.15;100.00;101519.66;5106111;28;19923;-75
2022/12/19 00:03:52;;;;;;;;;;;;;;;-0.28;100.00;101525.94;5103362;28;19927;-75
2022/12/19 00:06:19;;;;;;;;;;;;;;;-0.27;100.00;101533.72;5101506;28;19966;-74
2022/12/19 00:08:45;;;;;;;;;;;;;;;-0.26;100.00;101529.38;5108490;28;19961;-75
2022/12/19 00:11:12;;;;;;;;;;;;;;;-0.43;100.00;101521.88;5105088;28;19923;-74
2022/12/19 00:13:38;;;;;;;;;;;;;;;-0.42;100.00;101524.47;5105637;28;19920;-74
2022/12/19 00:16:04;;;;;;;;;;;;;;;-0.41;100.00;101525.28;5103757;28;19938;-76
2022/12/19 00:18:30;;;;;;;;;;;;;;;-0.42;100.00;101527.06;5103728;28;20010;-74
2022/12/19 00:20:56;;;;;;;;;;;;;;;-0.42;100.00;101524.47;5105668;28;20048;-75
2022/12/19 00:23:22;;;;;;;;;;;;;;;-0.42;100.00;101513.22;5106409;28;19923;-75
2022/12/19 00:25:47;;;;;;;;;;;;;;;-0.36;100.00;101522.66;5105498;28;19915;-74
2022/12/19 00:28:13;;;;;;;;;;;;;;;-0.34;100.00;101521.72;5102649;28;19916;-75
2022/12/19 00:30:38;;;;;;;;;;;;;;;-0.46;100.00;101527.13;5101949;28;20394;-75
2022/12/19 00:33:04;;;;;;;;;;;;;;;-0.52;100.00;101530.66;5105664;28;20052;-75
2022/12/19 00:35:29;;;;;;;;;;;;;;;-0.46;100.00;101517.59;5101707;28;19916;-75
2022/12/19 00:37:54;;;;;;;;;;;;;;;-0.38;100.00;101517.47;5105410;28;19920;-75
2022/12/19 00:40:20;;;;;;;;;;;;;;;-0.30;100.00;101512.16;5102495;28;19916;-75
2022/12/19 00:42:46;;;;;;;;;;;;;;;-0.29;100.00;101524.22;5103880;28;19951;-75
2022/12/19 00:45:11;;;;;;;;;;;;;;;-0.29;100.00;101526.81;5105030;28;20052;-75
2022/12/19 00:47:37;;;;;;;;;;;;;;;-0.27;100.00;101527.66;5134508;27;20110;-75
2022/12/19 00:50:02;;;;;;;;;;;;;;;-0.22;100.00;101529.28;5102231;28;19916;-75
2022/12/19 00:52:28;;;;;;;;;;;;;;;-0.26;100.00;101517.28;5103076;28;19915;-75
2022/12/19 00:54:55;;;;;;;;;;;;;;;-0.45;100.00;101515.88;5102540;28;19983;-75
2022/12/19 00:57:21;;;;;;;;;;;;;;;-0.41;100.00;101526.16;5103914;28;20006;-76
2022/12/19 00:59:46;;;;;;;;;;;;;;;-0.33;100.00;101527.75;5101966;28;19919;-75
2022/12/19 01:02:12;;;;;;;;;;;;;;;-0.31;100.00;101515.63;5105169;28;19959;-76
2022/12/19 01:04:37;;;;;;;;;;;;;;;-0.30;100.00;101522.53;5100829;28;19920;-76
2022/12/19 01:07:04;;;;;;;;;;;;;;;-0.24;100.00;101518.09;5105643;28;19984;-76
2022/12/19 01:09:32;;;;;;;;;;;;;;;-0.18;100.00;101517.13;5101268;28;20023;-76
2022/12/19 01:14:41;;;;;;;;;;;;;;;-0.03;100.00;101527.22;5097989;28;19962;-76
2022/12/19 01:17:07;;;;;;;;;;;;;;;0.02;100.00;101530.59;5102401;28;19916;-76
2022/12/19 01:19:32;;;;;;;;;;;;;;;0.07;100.00;101527.91;5104252;28;19916;-75
2022/12/19 01:21:58;;;;;;;;;;;;;;;0.11;100.00;101522.66;5103346;28;19934;-75
2022/12/19 01:24:23;;;;;;;;;;;;;;;0.14;100.00;101519.97;5101756;28;19961;-75
2022/12/19 01:26:48;;;;;;;;;;;;;;;0.17;100.00;101519.94;5103234;28;19916;-75
2022/12/19 01:29:14;;;;;;;;;;;;;;;0.17;100.00;101519.94;5105130;28;20022;-75
2022/12/19 01:31:39;;;;;;;;;;;;;;;0.15;100.00;101521.69;5100577;28;19927;-75
2022/12/19 01:34:05;;;;;;;;;;;;;;;0.16;100.00;101520.81;5102569;28;19946;-74
2022/12/19 01:36:30;;;;;;;;;;;;;;;0.15;100.00;101526.88;5101314;28;20019;-74
2022/12/19 01:38:56;;;;;;;;;;;;;;;0.12;100.00;101515.72;5103975;28;19942;-74
2022/12/19 01:41:22;;;;;;;;;;;;;;;0.11;100.00;101525.25;5083557;28;19915;-74
2022/12/19 01:43:59;;;;;;;;;;;;;;;0.10;100.00;101520.94;5105727;28;19916;-74
2022/12/19 01:46:26;;;;;;;;;;;;;;;0.09;100.00;101526.16;5099110;28;20060;-75
2022/12/19 01:48:52;;;;;;;;;;;;;;;0.06;100.00;101521.84;5099239;28;19938;-74
2022/12/19 01:51:20;;;;;;;;;;;;;;;0.09;100.00;101515.75;5103244;28;19998;-75
2022/12/19 01:53:48;;;;;;;;;;;;;;;0.02;100.00;101520.22;5101825;28;19916;-76
2022/12/19 01:56:14;;;;;;;;;;;;;;;0.03;100.00;101519.31;5102213;28;20035;-75
2022/12/19 01:58:42;;;;;;;;;;;;;;;0.02;100.00;101520.22;5100940;28;19919;-76
2022/12/19 02:01:07;;;;;;;;;;;;;;;0.06;100.00;101516.66;5100759;28;19926;-76
2022/12/19 02:03:34;;;;;;;;;;;;;;;0.11;100.00;101520.06;5098246;28;19920;-76
2022/12/19 02:06:01;;;;;;;;;;;;;;;0.15;100.00;101511.31;5097017;28;20427;-76
2022/12/19 02:08:27;;;;;;;;;;;;;;;0.19;100.00;101507.75;5099801;28;19920;-74
2022/12/19 02:10:52;;;;;;;;;;;;;;;0.22;100.00;101502.53;5100244;28;20380;-77
2022/12/19 02:13:19;;;;;;;;;;;;;;;0.26;100.00;101498.97;5099509;28;19952;-76
2022/12/19 02:16:01;;;;;;;;;;;;;;;0.31;100.00;101502.31;5102873;28;19950;-77
2022/12/19 02:18:28;;;;;;;;;;;;;;;0.36;100.00;101500.50;5131546;27;19916;-76
2022/12/19 02:21:13;;;;;;;;;;;;;;;0.36;100.00;101500.50;5099822;28;19938;-75
2022/12/19 02:23:57;;;;;;;;;;;;;;;0.26;100.00;101501.56;5103647;28;19923;-75
2022/12/19 02:26:29;;;;;;;;;;;;;;;0.20;100.00;101509.47;5093687;28;19991;-75
2022/12/19 02:28:58;;;;;;;;;;;;;;;0.12;100.00;101506.16;5102425;28;19916;-76
2022/12/19 02:31:42;;;;;;;;;;;;;;;0.03;100.00;101501.16;5100339;28;19915;-75
2022/12/19 02:34:13;;;;;;;;;;;;;;;-0.03;100.00;101501.28;5102423;28;20389;-75
2022/12/19 02:36:44;;;;;;;;;;;;;;;0.00;100.00;101506.44;5101198;28;19958;-75
2022/12/19 02:39:30;;;;;;;;;;;;;;;0.01;100.00;101502.91;5098982;28;19966;-76
2022/12/19 02:41:56;;;;;;;;;;;;;;;0.02;100.00;101503.78;5132649;27;19916;-75
2022/12/19 02:44:48;;;;;;;;;;;;;;;0.03;100.00;101501.16;5101990;28;19922;-74
2022/12/19 02:47:15;;;;;;;;;;;;;;;-0.03;100.00;101507.31;5097117;28;19916;-73
2022/12/19 02:49:41;;;;;;;;;;;;;;;-0.01;100.00;101499.53;5100507;28;20310;-75
2022/12/19 02:52:19;;;;;;;;;;;;;;;-0.05;100.00;101493.50;5098362;28;20014;-75
2022/12/19 02:54:50;;;;;;;;;;;;;;;-0.12;100.00;101501.47;5094678;28;19916;-74
2022/12/19 02:57:29;;;;;;;;;;;;;;;-0.09;100.00;101501.38;5099690;28;19956;-74
2022/12/19 03:00:13;;;;;;;;;;;;;;;-0.03;100.00;101496.94;5103644;28;20371;-74
2022/12/19 03:02:38;;;;;;;;;;;;;;;0.00;100.00;101506.44;5098621;28;20455;-74
2022/12/19 03:05:15;;;;;;;;;;;;;;;0.03;100.00;101506.34;5097649;28;20003;-74
2022/12/19 03:07:46;;;;;;;;;;;;;;;0.05;100.00;101509.78;5095786;28;19927;-74
2022/12/19 03:10:11;;;;;;;;;;;;;;;0.08;100.00;101509.72;5101569;28;20419;-75
2022/12/19 03:12:39;;;;;;;;;;;;;;;0.10;100.00;101513.16;5100265;28;19980;-75
2022/12/19 03:15:06;;;;;;;;;;;;;;;0.13;100.00;101510.47;5101167;28;19919;-74
2022/12/19 03:17:35;;;;;;;;;;;;;;;0.17;100.00;101514.75;5099117;28;19916;-76
2022/12/19 03:20:04;;;;;;;;;;;;;;;0.21;100.00;101518.13;5101518;28;20387;-75
2022/12/19 03:22:30;;;;;;;;;;;;;;;0.20;100.00;101512.06;5101341;28;20360;-74
2022/12/19 03:24:55;;;;;;;;;;;;;;;0.17;100.00;101512.16;5103999;28;19916;-75
2022/12/19 03:27:27;;;;;;;;;;;;;;;0.12;100.00;101516.53;5100169;28;20010;-76
2022/12/19 03:29:54;;;;;;;;;;;;;;;0.10;100.00;101515.75;5099332;28;19915;-76
2022/12/19 03:32:21;;;;;;;;;;;;;;;0.14;100.00;101509.59;5096664;28;19923;-75
2022/12/19 03:34:58;;;;;;;;;;;;;;;0.17;100.00;101509.56;5102621;28;19916;-75
2022/12/19 03:37:27;;;;;;;;;;;;;;;0.19;100.00;101512.94;5104319;28;20419;-74
2022/12/19 03:39:56;;;;;;;;;;;;;;;0.11;100.00;101514.88;5100366;28;19916;-75
2022/12/19 03:45:07;;;;;;;;;;;;;;;0.11;100.00;101509.66;5101386;28;20367;-75
2022/12/19 03:47:39;;;;;;;;;;;;;;;0.16;100.00;101517.38;5102175;28;19923;-75
2022/12/19 03:50:05;;;;;;;;;;;;;;;0.16;100.00;101507.84;5098973;28;20734;-74
2022/12/19 03:52:46;;;;;;;;;;;;;;;0.12;100.00;101493.19;5100574;28;19923;-73
2022/12/19 03:55:11;;;;;;;;;;;;;;;0.10;100.00;101491.53;5100071;28;20648;-75
2022/12/19 03:57:40;;;;;;;;;;;;;;;0.14;100.00;101499.22;5099600;28;19916;-75
2022/12/19 04:00:14;;;;;;;;;;;;;;;0.17;100.00;101496.56;5101766;28;19973;-74
2022/12/19 04:02:43;;;;;;;;;;;;;;;0.10;100.00;101505.34;5099322;28;20380;-75
2022/12/19 04:05:11;;;;;;;;;;;;;;;0.04;100.00;101502.88;5099914;28;20014;-75
2022/12/19 04:07:37;;;;;;;;;;;;;;;0.06;100.00;101508.06;5097783;28;20733;-75
2022/12/19 04:10:04;;;;;;;;;;;;;;;0.10;100.00;101507.94;5103708;28;20698;-75
2022/12/19 04:12:33;;;;;;;;;;;;;;;0.16;100.00;101507.84;5103201;28;20622;-73
2022/12/19 04:14:59;;;;;;;;;;;;;;;0.20;100.00;101517.25;5104612;28;19915;-74
2022/12/19 04:17:46;;;;;;;;;;;;;;;0.24;100.00;101518.06;5102296;28;19984;-74
2022/12/19 04:20:13;;;;;;;;;;;;;;;0.25;100.00;101506.78;5098524;28;20379;-74
2022/12/19 04:22:46;;;;;;;;;;;;;;;0.27;100.00;101503.28;5090623;28;19920;-74
2022/12/19 04:25:13;;;;;;;;;;;;;;;0.25;100.00;101509.38;5097997;28;20022;-74
2022/12/19 04:27:42;;;;;;;;;;;;;;;0.26;100.00;101511.97;5105779;28;20371;-73
2022/12/19 04:30:08;;;;;;;;;;;;;;;0.09;100.00;101521.81;5105633;28;20363;-75
2022/12/19 04:32:35;;;;;;;;;;;;;;;0.02;100.00;101522.81;5104093;28;20313;-74
2022/12/19 04:35:00;;;;;;;;;;;;;;;0.05;100.00;101525.34;5104148;28;19923;-75
2022/12/19 04:37:27;;;;;;;;;;;;;;;0.08;100.00;101525.28;5105074;28;19920;-74
2022/12/19 04:39:52;;;;;;;;;;;;;;;0.08;100.00;101514.91;5103051;28;19916;-74
2022/12/19 04:42:17;;;;;;;;;;;;;;;0.11;100.00;101519.19;5104057;28;19964;-74
2022/12/19 04:44:43;;;;;;;;;;;;;;;0.14;100.00;101513.94;5105311;28;19972;-74
2022/12/19 04:47:08;;;;;;;;;;;;;;;0.15;100.00;101516.50;5101322;28;19916;-75
2022/12/19 04:49:34;;;;;;;;;;;;;;;0.10;100.00;101523.53;5102384;28;19919;-74
2022/12/19 04:51:59;;;;;;;;;;;;;;;0.07;100.00;101522.72;5104464;28;19934;-75
2022/12/19 04:54:24;;;;;;;;;;;;;;;0.04;100.00;101518.44;5106726;28;20003;-76
2022/12/19 04:56:51;;;;;;;;;;;;;;;0.05;100.00;101520.16;5104562;28;19915;-75
2022/12/19 04:59:16;;;;;;;;;;;;;;;0.10;100.00;101517.47;5105702;28;19920;-75
2022/12/19 05:01:42;;;;;;;;;;;;;;;0.14;100.00;101513.94;5107894;28;19919;-74
2022/12/19 05:04:07;;;;;;;;;;;;;;;0.14;100.00;101513.94;5104079;28;19916;-75
2022/12/19 05:06:32;;;;;;;;;;;;;;;0.14;100.00;101514.78;5104371;28;19916;-77
2022/12/19 05:08:58;;;;;;;;;;;;;;;0.14;100.00;101525.16;5104711;28;19923;-77
2022/12/19 05:11:23;;;;;;;;;;;;;;;0.19;100.00;101522.47;5102164;28;19923;-77
2022/12/19 05:13:49;;;;;;;;;;;;;;;0.19;100.00;101512.09;5103548;28;19997;-76
2022/12/19 05:16:14;;;;;;;;;;;;;;;0.21;100.00;101518.97;5105727;28;19943;-75
2022/12/19 05:18:40;;;;;;;;;;;;;;;0.23;100.00;101517.22;5105214;28;19923;-75
2022/12/19 05:21:05;;;;;;;;;;;;;;;0.27;100.00;101521.47;5104829;28;20011;-75
2022/12/19 05:23:31;;;;;;;;;;;;;;;0.26;100.00;101519.75;5102631;28;19923;-76
2022/12/19 05:25:57;;;;;;;;;;;;;;;0.29;100.00;101521.44;5103649;28;19961;-76
2022/12/19 05:28:23;;;;;;;;;;;;;;;0.29;100.00;101514.50;5102542;28;19919;-75
2022/12/19 05:30:48;;;;;;;;;;;;;;;0.30;100.00;101511.00;5101095;28;19915;-76
2022/12/19 05:33:14;;;;;;;;;;;;;;;0.31;100.00;101523.09;5100424;28;19916;-76
2022/12/19 05:35:39;;;;;;;;;;;;;;;0.34;100.00;101524.78;5102555;28;19922;-76
2022/12/19 05:38:04;;;;;;;;;;;;;;;0.34;100.00;101528.25;5104142;28;19916;-76
2022/12/19 05:40:30;;;;;;;;;;;;;;;0.33;100.00;101536.06;5101368;28;19951;-76
2022/12/19 05:42:55;;;;;;;;;;;;;;;0.35;100.00;101535.13;5102685;28;19923;-76
2022/12/19 05:45:21;;;;;;;;;;;;;;;0.37;100.00;101527.31;5099174;28;19916;-75
2022/12/19 05:47:46;;;;;;;;;;;;;;;0.29;100.00;101530.09;5101312;28;20010;-74
2022/12/19 05:50:12;;;;;;;;;;;;;;;0.32;100.00;101524.81;5105542;28;19927;-75
2022/12/19 05:52:38;;;;;;;;;;;;;;;0.30;100.00;101526.56;5100817;28;19916;-75
2022/12/19 05:55:04;;;;;;;;;;;;;;;0.29;100.00;101532.69;5102507;28;19919;-74
2022/12/19 05:57:29;;;;;;;;;;;;;;;0.30;100.00;101536.09;5102800;28;19915;-75
2022/12/19 05:59:55;;;;;;;;;;;;;;;0.24;100.00;101521.50;5103891;28;19923;-77
2022/12/19 06:02:20;;;;;;;;;;;;;;;0.23;100.00;101526.75;5101838;28;19916;-77
2022/12/19 06:04:45;;;;;;;;;;;;;;;0.25;100.00;101527.56;5101549;28;19964;-76
2022/12/19 06:07:11;;;;;;;;;;;;;;;0.25;100.00;101522.34;5099261;28;19916;-76
2022/12/19 06:09:36;;;;;;;;;;;;;;;0.22;100.00;101528.50;5103076;28;19923;-78
2022/12/19 06:12:02;;;;;;;;;;;;;;;0.22;100.00;101523.28;5102880;28;19919;-76
2022/12/19 06:14:27;;;;;;;;;;;;;;;0.24;100.00;101525.84;5100883;28;20007;-78
2022/12/19 06:16:52;;;;;;;;;;;;;;;0.26;100.00;101530.13;5101041;28;19912;-77
2022/12/19 06:19:18;;;;;;;;;;;;;;;0.29;100.00;101535.28;5101761;28;19915;-77
2022/12/19 06:24:13;;;;;;;;;;;;;;;0.34;100.00;101528.25;5044765;28;19956;-79
2022/12/19 06:26:39;;;;;;;;;;;;;;;0.36;100.00;101533.38;5040223;28;19967;-77
2022/12/19 06:29:04;;;;;;;;;;;;;;;0.36;100.00;101534.25;5039054;28;20020;-79
2022/12/19 06:31:30;;;;;;;;;;;;;;;0.40;100.00;101522.94;5037593;28;20000;-77
2022/12/19 06:33:55;;;;;;;;;;;;;;;0.39;100.00;101531.59;5035578;28;19921;-77
2022/12/19 06:36:22;;;;;;;;;;;;;;;0.41;100.00;101535.00;5041012;28;19917;-79
2022/12/19 06:38:48;;;;;;;;;;;;;;;0.44;100.00;101528.91;5037401;28;19993;-79
2022/12/19 06:43:58;;;;;;;;;;;;;;;0.48;100.00;101524.50;5038823;28;19921;-75
2022/12/19 06:46:24;;;;;;;;;;;;;;;0.53;100.00;101517.50;5040344;28;19969;-76
2022/12/19 06:48:50;;;;;;;;;;;;;;;0.52;100.00;101515.78;5039691;28;19948;-75
2022/12/19 06:51:15;;;;;;;;;;;;;;;0.50;100.00;101518.41;5042450;28;20344;-75
2022/12/19 06:53:41;;;;;;;;;;;;;;;0.54;100.00;101521.78;5039107;28;19917;-75
2022/12/19 06:56:07;;;;;;;;;;;;;;;0.54;100.00;101511.38;5042747;28;19931;-76
2022/12/19 06:58:32;;;;;;;;;;;;;;;0.58;100.00;101513.06;5039628;28;19999;-75
2022/12/19 07:00:58;;;;;;;;;;;;;;;0.60;100.00;101513.84;5023950;28;20067;-78
2022/12/19 07:03:26;;;;;;;;;;;;;;;0.61;100.00;101512.97;5035594;28;20576;-78
2022/12/19 07:05:51;;;;;;;;;;;;;;;0.63;100.00;101508.59;5035751;28;19921;-77
2022/12/19 07:08:17;;;;;;;69.38;46.97;;;;;;;0.61;100.00;101508.63;5040642;28;19927;-78
2022/12/19 07:10:42;;;;;;;74.80;48.22;;;;;;;0.64;100.00;101515.53;5042239;28;20060;-77
2022/12/19 07:13:08;;;;;;;72.40;48.42;;;;;;;0.63;100.00;101513.81;5040832;28;20373;-78
2022/12/19 07:15:35;;;;;;;70.03;47.20;;;;;;;0.63;100.00;101514.66;5039804;28;20468;-78
2022/12/19 07:18:03;;;;;;;74.53;48.05;;;;;;;0.65;100.00;101522.44;5039540;28;20029;-77
2022/12/19 07:20:31;;;;;;;71.70;49.15;;;;;;;0.66;100.00;101524.13;5024073;28;20381;-78
2022/12/19 07:22:58;;;;;;;71.38;48.17;;;;;;;0.66;100.00;101539.69;5035975;28;20038;-78
2022/12/19 07:25:23;;;;;;;71.45;47.05;;;;;;;0.66;100.00;101537.09;5028960;28;20033;-78
2022/12/19 07:27:50;;;;;;;71.03;46.42;;;;;;;0.65;100.00;101538.03;5043955;28;20361;-77
2022/12/19 07:30:16;;;;;;;76.40;49.38;;;;;;;0.66;100.00;101529.31;5041577;28;20040;-77
2022/12/19 07:32:41;;;;;;;79.55;49.45;;;;;;;0.68;100.00;101532.75;5037488;28;20031;-77
2022/12/19 07:35:07;;;;;;;80.90;49.22;;;;;;;0.72;100.00;101536.97;5040939;28;20403;-78
2022/12/19 07:37:32;;;;;;;77.57;49.20;;;;;;;0.77;100.00;101537.72;5038863;28;20066;-78
2022/12/19 07:39:58;;;;;;;76.03;47.67;;;;;;;0.82;100.00;101541.13;5037955;28;20120;-78
2022/12/19 07:42:23;;;;;;;;;;;;;;;0.87;100.00;101538.41;5043252;28;20127;-77
2022/12/19 07:44:48;;;;;;;;;;;;;;;0.92;100.00;101540.03;5034716;28;19918;-78
2022/12/19 07:47:14;;;;;;;;;;;;;;;0.97;100.00;101534.72;5043303;28;19961;-78
2022/12/19 07:49:39;;;;;;;;;;;;;;;0.98;100.00;101529.47;5043851;28;20023;-77
2022/12/19 07:52:04;;;;;;;;;;;;;;;1.01;100.00;101541.53;5043574;28;19972;-77
2022/12/19 07:54:30;;;;;;;;;;;;;;;1.00;100.00;101540.69;5043528;28;20329;-78
2022/12/19 07:56:55;;;;;;;;;;;;;;;1.02;100.00;101540.66;5045988;28;19916;-78
2022/12/19 07:59:21;;;;;;;;;;;;;;;1.01;100.00;101547.59;5044239;28;20276;-78
2022/12/19 08:01:46;;;;;;;80.00;49.28;;;;;;;0.87;100.00;101548.81;5044626;28;20399;-77
2022/12/19 08:04:12;;;;;;;83.07;46.97;;;;;;;0.94;100.00;101545.19;5039520;28;20025;-78
2022/12/19 08:06:37;;;;;;;76.82;48.67;;;;;;;0.96;100.00;101554.66;5040243;28;20056;-78
2022/12/19 08:09:03;;;;;;;81.25;50.80;;;;;;;1.01;100.00;101557.13;5044195;28;20038;-78
2022/12/19 08:11:29;;;;;;;79.93;49.25;;;;;;;1.07;100.00;101554.41;5045226;28;20033;-77
2022/12/19 08:13:57;;;;;;;81.13;49.75;;;;;;;1.08;100.00;101559.56;5046960;28;20096;-78
2022/12/19 08:16:25;;;;;;;76.47;49.63;;;;;;;1.15;100.00;101561.16;5041600;28;20124;-77
2022/12/19 08:18:51;;;;;;;78.55;48.50;;;;;;;1.20;100.00;101553.25;5036574;28;20038;-77
2022/12/19 08:21:17;;;;;;;78.78;49.92;;;;;;;1.26;100.00;101557.44;5026620;28;20032;-76
2022/12/19 08:23:42;;;;;;;79.95;49.47;;;;;;;1.29;100.00;101557.41;5016472;28;20405;-78
2022/12/19 08:26:10;;;;;;;;;;;;;;;1.30;100.00;101553.91;5033362;28;20033;-77
2022/12/19 08:28:36;;;;;;;;;;;;;;;1.34;100.00;101558.13;5005780;28;19917;-78
2022/12/19 08:31:05;;;;;;;;;;;;;;;1.35;100.00;101552.06;5022482;28;19921;-77
2022/12/19 08:33:31;;;;;;;;;;;;;;;1.34;100.00;101550.34;5024407;28;19952;-77
2022/12/19 08:35:56;;;;;;;;;;;;;;;1.38;100.00;101546.75;5024434;28;20003;-78
2022/12/19 08:38:21;;;;;;;;;;;;;;;1.40;100.00;101539.78;5021987;28;20008;-77
2022/12/19 08:40:50;;;;;;;;;;;;;;;1.38;100.00;101549.34;5027894;28;19960;-77
2022/12/19 08:43:16;;;;;;;;;;;;;;;1.43;100.00;101552.69;5034281;28;20426;-78
2022/12/19 08:45:41;;;;;;;;;;;;;;;1.43;100.00;101557.91;5043719;28;19917;-79
2022/12/19 08:48:06;;;;;;;;;;;;;;;1.47;100.00;101556.97;5039903;28;19928;-77
2022/12/19 08:50:32;;;;;;;;;;;;;;;1.52;100.00;101552.50;5042841;28;20280;-77
2022/12/19 08:52:57;;;;;;;;;;;;;;;1.56;100.00;101562.78;5044015;28;19917;-78
2022/12/19 08:55:23;;;;;;;;;;;;;;;1.53;100.00;101562.03;5040921;28;19956;-78
2022/12/19 08:57:48;;;;;;;;;;;;;;;1.49;100.00;101550.81;5045846;28;19927;-77
2022/12/19 09:00:14;;;;;;;;;;;;;;;1.48;100.00;101553.44;5041370;28;20273;-77
2022/12/19 09:02:39;;;;;;;;;;;;;;;1.49;100.00;101545.59;5044479;28;20394;-79
2022/12/19 09:05:04;;;;;;;;;;;;;;;1.46;100.00;101556.09;5046846;28;19917;-76
2022/12/19 09:07:30;;;;;;;;;;;;;;;1.49;100.00;101545.59;5043674;28;20384;-77
2022/12/19 09:09:55;;;;;;;;;;;;;;;1.53;100.00;101559.41;5042336;28;19916;-77
2022/12/19 09:12:20;;;;;;;;;;;;;;;1.53;100.00;101556.81;5050644;28;20301;-77
2022/12/19 09:14:46;;;;;;;;;;;;;;;1.53;100.00;101567.22;5040612;28;19916;-78
2022/12/19 09:17:11;;;;;;;;;;;;;;;1.49;100.00;101556.03;5045603;28;19924;-76
2022/12/19 09:19:36;;;;;;;;;;;;;;;1.45;100.00;101564.78;5043302;28;19924;-76
2022/12/19 09:22:02;;;;;;;;;;;;;;;1.49;100.00;101560.38;5040849;28;19917;-76
2022/12/19 09:24:27;;;;;;;;;;;;;;;1.52;100.00;101563.75;5041714;28;19967;-77
2022/12/19 09:26:53;;;;;;;;;;;;;;;1.53;100.00;101567.22;5034669;28;20004;-77
2022/12/19 09:29:18;;;;;;;;;;;;;;;1.57;100.00;101563.66;5041310;28;20012;-77
2022/12/19 09:31:43;;;;;;;;;;;;;;;1.60;100.00;101558.34;5044075;28;19917;-76
2022/12/19 09:34:09;;;;;;;;;;;;;;;1.57;100.00;101558.44;5040463;28;20372;-77
2022/12/19 09:36:34;;;;;;;;;;;;;;;1.59;100.00;101564.47;5040907;28;19948;-77
2022/12/19 09:38:59;;;;;;;;;;;;;;;1.60;100.00;101571.38;5042259;28;19924;-78
2022/12/19 09:41:32;;;;;;;;;;;;;;;1.62;100.00;101561.78;5045472;28;19917;-79
2022/12/19 09:44:26;;;;;;;;;;;;;;;1.61;100.00;101554.88;5040568;28;19952;-77
2022/12/19 09:46:52;;;;;;;;;;;;;;;1.60;100.00;101560.94;4954056;28;20271;-77
2022/12/19 09:49:20;;;;;;;;;;;;;;;1.59;100.00;101562.69;5037118;28;19921;-76
2022/12/19 09:51:45;;;;;;;;;;;;;;;1.63;100.00;101547.88;5041002;28;20380;-77
2022/12/19 09:54:14;;;;;;;;;;;;;;;1.65;100.00;101546.06;5042410;28;19963;-77
2022/12/19 09:56:42;;;;;;;;;;;;;;;1.67;100.00;101549.50;5040442;28;19924;-78
2022/12/19 09:59:13;;;;;;;;;;;;;;;1.60;100.00;101550.53;5043185;28;19947;-77
2022/12/19 10:01:46;;;;;;;;;;;;;;;1.49;100.00;101545.59;5040165;28;20019;-77
2022/12/19 10:04:17;;;;;;;;;;;;;;;1.52;100.00;101549.91;5040929;28;19920;-78
2022/12/19 10:06:42;;;;;;;;;;;;;;;1.54;100.00;101537.69;5033450;28;19916;-78
2022/12/19 10:09:12;;;;;;;;;;;;;;;1.62;100.00;101540.97;5039356;28;19928;-78
2022/12/19 10:11:37;;;;;;;;;;;;;;;1.68;100.00;101540.81;5043689;28;19964;-78
2022/12/19 10:14:08;;;;;;;;;;;;;;;1.73;100.00;101544.16;5041844;28;20017;-78
2022/12/19 10:16:50;;;;;;;;;;;;;;;1.81;100.00;101542.22;5039219;28;19917;-78
2022/12/19 10:19:25;;;;;;;;;;;;;;;1.90;100.00;101528.94;5036126;28;19917;-78
2022/12/19 10:21:54;;;;;;;;;;;;;;;1.96;100.00;101527.94;5042029;28;20335;-78
2022/12/19 10:24:40;;;;;;;84.70;49.25;;;;;;;2.03;100.00;101522.53;5037680;28;19923;-75
2022/12/19 10:27:28;;;;;;;84.65;48.47;;;;;;;2.14;100.00;101521.38;5040479;28;20037;-77
2022/12/19 10:30:00;;;;;;;;;;;;;;;2.19;100.00;101527.31;5040160;28;20029;-77
2022/12/19 10:32:36;;;;;;;83.60;47.33;;;;;;;2.20;100.00;101521.22;5040303;28;19940;-78
2022/12/19 10:35:12;;;;;;;82.03;47.65;;;;;;;2.34;100.00;101521.69;5045565;28;20191;-77
2022/12/19 10:37:45;;;;;;;84.45;47.47;;;;;;;2.15;100.00;101513.53;5039221;28;20041;-78
2022/12/19 10:40:19;;;;;;;;;;;;;;;2.20;100.00;101509.06;5042426;28;20025;-78
2022/12/19 10:42:48;;;;;;;;;;;;;;;2.31;100.00;101503.53;5043667;28;19971;-78
2022/12/19 10:45:15;;;;;;;;;;;;;;;2.39;100.00;101496.38;5035130;28;19913;-77
2022/12/19 10:47:41;;;;;;;;;;;;;;;2.49;100.00;101497.81;5042263;28;20015;-79
2022/12/19 10:50:11;;;;;;;;;;;;;;;2.58;100.00;101492.34;5040316;28;20384;-78
2022/12/19 10:52:47;;;;;;;;;;;;;;;2.66;100.00;101486.88;5042298;28;19975;-78
2022/12/19 10:55:35;;;;;;;89.45;49.83;;;;;;;2.69;100.00;101492.88;5038630;28;20414;-78
2022/12/19 10:58:24;;;;;;;85.72;48.85;;;;;;;2.71;100.00;101475.41;5040655;28;20044;-78
2022/12/19 11:01:08;;;;;;;86.30;48.10;;;;;;;2.74;100.00;101484.91;5042399;28;20047;-77
2022/12/19 11:03:34;;;;;;;86.60;47.13;;;;;;;2.78;100.00;101468.25;5037725;28;20068;-77
2022/12/19 11:06:01;;;;;;;80.90;45.60;;;;;;;2.81;100.00;101471.66;5040941;28;20467;-78
2022/12/19 11:08:35;;;;;;;84.20;47.80;;;;;;;2.82;100.00;101468.13;5044597;28;20129;-78
2022/12/19 11:11:03;;;;;;;87.35;49.40;;;;;;;2.79;100.00;101468.22;5043893;28;19954;-78
2022/12/19 11:13:40;;;;;;;88.30;49.05;;;;;;;2.75;100.00;101464.00;5043246;28;20552;-78
2022/12/19 11:16:08;;;;;;;85.95;47.65;;;;;;;2.79;100.00;101463.00;5039406;28;20036;-78
2022/12/19 11:18:45;;;;;;;92.45;49.47;;;;;;;2.88;100.00;101462.75;5042737;28;20037;-78
2022/12/19 11:21:18;;;;;;;86.40;47.38;;;;;;;2.98;100.00;101462.44;5042842;28;20048;-77
2022/12/19 11:23:58;;;;;;;88.43;49.38;;;;;;;3.02;100.00;101453.59;5042499;28;20452;-75
2022/12/19 11:26:39;;;;;;;81.50;47.25;;;;;;;3.09;100.00;101452.50;5043199;28;20611;-78
2022/12/19 11:29:16;;;;;;;;;;;;;;;3.17;100.00;101448.75;5043631;28;20044;-78
2022/12/19 11:31:42;;;;;;;;;;;;;;;3.24;100.00;101450.25;5047041;28;19921;-78
2022/12/19 11:34:22;;;;;;;;;;;;;;;3.31;100.00;101448.28;5042791;28;19928;-78
2022/12/19 11:37:06;;;;;;;;;;;;;;;3.24;100.00;101438.97;5044138;28;19962;-78
2022/12/19 11:39:35;;;;;;;;;;;;;;;3.12;100.00;101439.38;5045986;28;20341;-78
2022/12/19 11:42:09;;;;;;;;;;;;;;;3.18;100.00;101433.97;5043620;28;19916;-79
2022/12/19 11:44:47;;;;;;;;;;;;;;;3.26;100.00;101432.78;5039650;28;19960;-76
2022/12/19 11:47:31;;;;;;;;;;;;;;;3.26;100.00;101432.78;5009159;28;20430;-76
2022/12/19 11:50:21;;;;;;;;;;;;;;;3.28;100.00;101425.78;5027655;28;19917;-74
2022/12/19 11:52:51;;;;;;;;;;;;;;;3.36;100.00;101420.28;5033354;28;20665;-77
2022/12/19 11:55:20;;;;;;;;;;;;;;;3.34;100.00;101414.28;5029699;28;19916;-74
2022/12/19 11:57:46;;;;;;;;;;;;;;;3.34;100.00;101411.66;5025383;28;19939;-76
2022/12/19 12:00:12;;;;;;;;;;;;;;;3.44;100.00;101413.06;5027055;28;19916;-75
2022/12/19 12:02:38;;;;;;;;;;;;;;;3.47;100.00;101409.50;5029903;28;19924;-78
2022/12/19 12:05:31;;;;;;;;;;;;;;;3.51;100.00;101405.88;5024990;28;19996;-75
2022/12/19 12:08:11;;;;;;;;;;;;;;;3.60;100.00;101406.38;5028402;28;19921;-76
2022/12/19 12:10:44;;;;;;;;;;;;;;;3.54;100.00;101406.59;5022351;28;20041;-76
2022/12/19 12:13:15;;;;;;;;;;;;;;;3.58;100.00;101403.00;5023788;28;20383;-75
2022/12/19 12:16:03;;;;;;;;;;;;;;;3.48;100.00;101401.59;5021870;28;19925;-74
2022/12/19 12:18:40;;;;;;;;;;;;;;;3.38;100.00;101394.16;5021043;28;19984;-75
2022/12/19 12:21:31;;;;;;;;;;;;;;;3.48;100.00;101391.16;5025492;28;20016;-76
2022/12/19 12:24:06;;;;;;;;;;;;;;;3.58;100.00;101392.56;4995440;28;19924;-74
2022/12/19 12:26:31;;;;;;;;;;;;;;;3.65;100.00;101396.63;5022344;28;20263;-74
2022/12/19 12:29:03;;;;;;;;;;;;;;;3.46;100.00;101398.22;5023833;28;20003;-74
2022/12/19 12:31:29;;;;;;;;;;;;;;;3.54;100.00;101406.59;5021960;28;20014;-75
2022/12/19 12:33:57;;;;;;;;;;;;;;;3.58;100.00;101403.00;5023562;28;20274;-75
2022/12/19 12:36:38;;;;;;;;;;;;;;;3.55;100.00;101387.44;5022827;28;20360;-75
2022/12/19 12:39:10;;;;;;;;;;;;;;;3.71;100.00;101393.81;5031151;28;19992;-75
2022/12/19 12:42:04;;;;;;;;;;;;;;;3.59;100.00;101382.97;5033940;28;19917;-75